Time;durP1;ratioP1;P1;durP2;ratioP2;P2;SDS_P1;SDS_P2;PMS_P1;PMS_P2;Temp;Humidity;BMP_temperature;BMP_pressure;BME280_temperature;BME280_humidity;BME280_pressure;Samples;Min_cycle;Max_cycle;Signal;HPM_P1;HPM_P2
2023/01/31 00:01:21;;;;;;;;;;;;;;;1.60;63.75;99273.09;4970519;28;20687;-81
2023/01/31 00:03:47;;;;;;;;;;;;;;;1.71;64.44;99271.50;4969453;28;20415;-82
2023/01/31 00:06:15;;;;;;;;;;;;;;;1.87;63.88;99276.91;4970298;28;19922;-82
2023/01/31 00:08:41;;;;;;;;;;;;;;;2.00;63.23;99272.78;4952939;28;19922;-82
2023/01/31 00:11:06;;;;;;;;;;;;;;;1.71;64.82;99284.50;4970545;28;19918;-82
2023/01/31 00:13:32;;;;;;;;;;;;;;;1.28;66.93;99283.00;4970112;28;19936;-81
2023/01/31 00:15:57;;;;;;;;;;;;;;;1.17;67.99;99283.69;4970128;28;19926;-82
2023/01/31 00:18:22;;;;;;;;;;;;;;;1.06;68.68;99274.88;4970600;28;19933;-82
2023/01/31 00:20:48;;;;;;;;;;;;;;;1.01;68.91;99284.31;4970184;28;19947;-82
2023/01/31 00:23:13;;;;;;;;;;;;;;;0.95;69.05;99286.81;4969989;28;20029;-80
2023/01/31 00:25:39;;;;;;;;;;;;;;;1.00;68.52;99278.22;4969775;28;19938;-81
2023/01/31 00:28:04;;;;;;;;;;;;;;;1.12;68.25;99272.38;4952617;28;20660;-80
2023/01/31 00:30:29;;;;;;;;;;;;;;;1.00;69.16;99267.84;4970136;28;19922;-81
2023/01/31 00:32:55;;;;;;;;;;;;;;;1.08;68.64;99270.56;4984237;28;19926;-80
2023/01/31 00:35:20;;;;;;;;;;;;;;;1.30;68.39;99279.59;4970013;28;20005;-81
2023/01/31 00:37:45;;;;;;;;;;;;;;;1.64;67.19;99274.91;4970143;28;20012;-81
2023/01/31 00:40:11;;;;;;;;;;;;;;;1.74;66.58;99268.94;4969607;28;19929;-82
2023/01/31 00:42:36;;;;;;;;;;;;;;;2.00;65.81;99265.84;4952823;28;20411;-82
2023/01/31 00:45:01;;;;;;;;;;;;;;;2.14;64.35;99266.00;4969510;28;19925;-82
2023/01/31 00:47:27;;;;;;;;;;;;;;;1.97;65.36;99269.25;4970062;28;19940;-83
2023/01/31 00:49:52;;;;;;;;;;;;;;;2.23;64.59;99271.31;4969542;28;19925;-82
2023/01/31 00:52:17;;;;;;;;;;;;;;;2.32;63.69;99267.97;4968789;28;20001;-82
2023/01/31 00:54:43;;;;;;;;;;;;;;;2.27;63.67;99278.31;4951168;28;20928;-82
2023/01/31 00:57:08;;;;;;;;;;;;;;;2.18;62.79;99282.50;4969392;28;20348;-83
2023/01/31 00:59:33;;;;;;;;;;;;;;;2.28;59.34;99271.38;4969633;28;20348;-82
2023/01/31 01:01:59;;;;;;;;;;;;;;;2.75;57.59;99276.22;4969666;28;19922;-82
2023/01/31 01:04:24;;;;;;;;;;;;;;;3.08;54.70;99276.53;4969759;28;19922;-83
2023/01/31 01:06:49;;;;;;;;;;;;;;;3.44;54.88;99273.31;4969104;28;19961;-82
2023/01/31 01:09:16;;;;;;;;;;;;;;;3.45;54.88;99263.78;4969420;28;20034;-82
2023/01/31 01:11:41;;;;;;;;;;;;;;;3.56;55.06;99267.31;4969486;28;20001;-82
2023/01/31 01:14:06;;;;;;;;;;;;;;;3.54;54.45;99264.69;4969373;28;20432;-82
2023/01/31 01:16:33;;;;;;;;;;;;;;;3.63;54.09;99260.38;4968568;28;19919;-81
2023/01/31 01:19:00;;;;;;;;;;;;;;;3.68;54.86;99259.56;4968363;28;19922;-82
2023/01/31 01:21:27;;;;;;;;;;;;;;;3.58;55.51;99257.75;4969028;28;19922;-81
2023/01/31 01:23:54;;;;;;;;;;;;;;;3.64;55.60;99264.75;4984441;28;20680;-82
2023/01/31 01:26:25;;;;;;;;;;;;;;;3.75;55.77;99257.84;4968752;28;19918;-82
2023/01/31 01:28:52;;;;;;;;;;;;;;;3.83;55.01;99255.28;4968518;28;19973;-83
2023/01/31 01:31:18;;;;;;;;;;;;;;;3.98;55.09;99254.50;4968067;28;20312;-83
2023/01/31 01:33:44;;;;;;;;;;;;;;;4.07;54.67;99267.59;4950085;28;20486;-83
2023/01/31 01:36:16;;;;;;;;;;;;;;;4.11;54.93;99261.53;4968933;28;19984;-82
2023/01/31 01:38:43;;;;;;;;;;;;;;;4.20;54.78;99265.91;4968932;28;19922;-82
2023/01/31 01:41:09;;;;;;;;;;;;;;;4.32;55.08;99259.84;4968891;28;20020;-83
2023/01/31 01:43:57;;;;;;;;;;;;;;;4.39;54.25;99256.41;4968675;28;20455;-84
2023/01/31 01:46:28;;;;;;;;;;;;;;;4.46;54.63;99251.22;4951553;28;19968;-83
2023/01/31 01:48:57;;;;;;;;;;;;;;;4.38;54.65;99247.69;4968458;28;19925;-85
2023/01/31 01:51:22;;;;;;;;;;;;;;;4.39;54.58;99249.44;4968800;28;19925;-82
2023/01/31 01:53:50;;;;;;;;;;;;;;;4.46;54.97;99250.31;4968553;28;19922;-82
2023/01/31 01:56:18;;;;;;;;;;;;;;;4.53;55.07;99246.00;4968618;28;19965;-82
2023/01/31 01:58:52;;;;;;;;;;;;;;;4.55;54.58;99245.09;4968530;28;20404;-81
2023/01/31 02:01:18;;;;;;;;;;;;;;;4.59;54.62;99240.78;4968807;28;19922;-83
2023/01/31 02:03:44;;;;;;;;;;;;;;;4.56;54.22;99246.00;4968542;28;20021;-82
2023/01/31 02:06:10;;;;;;;;;;;;;;;4.77;54.43;99247.75;4968715;28;19930;-83
2023/01/31 02:08:36;;;;;;;;;;;;;;;4.80;54.01;99245.16;4968872;28;19922;-82
2023/01/31 02:11:04;;;;;;;;;;;;;;;4.72;54.31;99239.06;4968571;28;20017;-82
2023/01/31 02:13:30;;;;;;;;;;;;;;;4.70;53.90;99236.44;4968687;28;19973;-82
2023/01/31 02:15:56;;;;;;;;;;;;;;;4.58;54.25;99228.59;4968836;28;19926;-81
2023/01/31 02:18:22;;;;;;;;;;;;;;;4.61;54.39;99232.06;4968086;28;19926;-84
2023/01/31 02:20:50;;;;;;;;;;;;;;;4.62;54.51;99219.88;4967817;28;20516;-82
2023/01/31 02:23:18;;;;;;;;;;;;;;;4.72;54.43;99232.06;4968129;28;19954;-80
2023/01/31 02:25:44;;;;;;;;;;;;;;;4.70;53.31;99226.00;4968273;28;19926;-82
2023/01/31 02:28:09;;;;;;;;;;;;;;;4.76;53.59;99226.00;4968488;28;19922;-83
2023/01/31 02:30:52;;;;;;;;;;;;;;;5.06;52.67;99229.47;4968201;28;20431;-83
2023/01/31 02:33:18;;;;;;;;;;;;;;;5.02;52.77;99218.16;4967855;28;20405;-83
2023/01/31 02:36:03;;;;;;;;;;;;;;;4.97;52.07;99222.53;4968430;28;19936;-82
2023/01/31 02:38:28;;;;;;;;;;;;;;;4.98;52.17;99220.78;4967648;28;19926;-84
2023/01/31 02:41:12;;;;;;;;;;;;;;;5.14;52.30;99219.91;4950429;28;19926;-83
2023/01/31 02:46:48;;;;;;;;;;;;;;;5.23;51.30;99205.94;4968000;28;19929;-82
2023/01/31 02:49:34;;;;;;;;;;;;;;;5.07;51.16;99199.88;4950817;28;19922;-81
2023/01/31 02:52:15;;;;;;;;;;;;;;;5.14;51.59;99203.34;4968046;28;19922;-82
2023/01/31 02:57:27;;;;;;;;;;;;;;;5.12;50.36;99179.81;4967579;28;20471;-82
2023/01/31 02:59:52;;;;;;;;;;;;;;;5.06;50.60;99185.03;4948946;28;20021;-82
2023/01/31 03:02:18;;;;;;;;;;;;;;;5.12;50.54;99186.78;4967379;28;20455;-79
2023/01/31 03:04:43;;;;;;;;;;;;;;;5.14;49.28;99193.75;4967327;28;20017;-84
2023/01/31 03:07:16;;;;;;;;;;;;;;;5.24;49.46;99191.13;4967627;28;19936;-83
2023/01/31 03:10:00;;;;;;;;;;;;;;;5.33;49.35;99194.59;4967731;28;19922;-81
2023/01/31 03:12:25;;;;;;;;;;;;;;;5.39;48.56;99196.31;4968426;28;19925;-82
2023/01/31 03:14:53;;;;;;;;;;;;;;;5.31;48.88;99196.31;4967677;28;19937;-82
2023/01/31 03:17:31;;;;;;;;;;;;;;;5.25;49.06;99185.91;4967704;28;19914;-82
2023/01/31 03:20:16;;;;;;;;;;;;;;;5.47;48.77;99191.97;4967320;28;19948;-82
2023/01/31 03:22:55;;;;;;;;;;;;;;;5.48;48.03;99188.44;4967498;28;19926;-82
2023/01/31 03:25:22;;;;;;;;;;;;;;;5.64;47.38;99188.41;4967520;28;19926;-83
2023/01/31 03:27:51;;;;;;;;;;;;;;;5.75;47.05;99194.50;4968063;28;19922;-82
2023/01/31 03:30:21;;;;;;;;;;;;;;;5.52;47.55;99200.66;4967483;28;19918;-82
2023/01/31 03:32:54;;;;;;;;;;;;;;;5.49;47.52;99198.03;4950624;28;20352;-82
2023/01/31 03:35:23;;;;;;;;;;;;;;;5.32;47.73;99190.22;4967716;28;19937;-82
2023/01/31 03:37:58;;;;;;;;;;;;;;;5.24;47.14;99199.00;4968288;28;19926;-81
2023/01/31 03:40:30;;;;;;;;;;;;;;;5.23;47.82;99199.84;4967702;28;19933;-80
2023/01/31 03:43:09;;;;;;;;;;;;;;;5.36;47.93;99198.94;4969750;28;20401;-81
2023/01/31 03:45:48;;;;;;;;;;;;;;;5.32;48.20;99192.84;4970533;28;21345;-81
2023/01/31 03:48:17;;;;;;;;;;;;;;;5.13;47.76;99197.25;4971517;28;20016;-80
2023/01/31 03:50:48;;;;;;;;;;;;;;;5.16;48.26;99206.84;4970460;28;20377;-81
2023/01/31 03:53:18;;;;;;;;;;;;;;;5.01;48.92;99202.47;4970999;28;19930;-81
2023/01/31 03:55:55;;;;;;;;;;;;;;;4.97;48.73;99201.63;4970796;28;19925;-81
2023/01/31 03:58:25;;;;;;;;;;;;;;;5.02;48.07;99205.09;4970962;28;19929;-83
2023/01/31 04:00:51;;;;;;;;;;;;;;;4.93;48.87;99212.06;4970728;28;19929;-81
2023/01/31 04:03:37;;;;;;;;;;;;;;;4.81;48.73;99208.56;4968834;28;20549;-84
2023/01/31 04:06:02;;;;;;;;;;;;;;;4.83;47.58;99201.63;4969173;28;19922;-84
2023/01/31 04:08:29;;;;;;;;;;;;;;;4.90;46.78;99210.31;4970613;28;19957;-81
2023/01/31 04:10:57;;;;;;;;;;;;;;;4.75;47.39;99210.31;4970688;28;19922;-81
2023/01/31 04:13:22;;;;;;;;;;;;;;;4.80;46.84;99206.84;4969637;28;19930;-80
2023/01/31 04:15:48;;;;;;;;;;;;;;;4.74;46.39;99195.50;4967010;28;19933;-81
2023/01/31 04:18:13;;;;;;;;;;;;;;;4.58;45.78;99207.69;4968954;28;19933;-80
2023/01/31 04:20:38;;;;;;;;;;;;;;;4.59;45.90;99207.69;4969098;28;20009;-83
2023/01/31 04:23:04;;;;;;;;;;;;;;;4.53;44.90;99214.66;4968820;28;20229;-81
2023/01/31 04:25:29;;;;;;;;;;;;;;;4.61;45.73;99218.13;4969157;28;19977;-83
2023/01/31 04:27:54;;;;;;;;;;;;;;;4.54;45.48;99227.72;4996194;28;19918;-80
2023/01/31 04:30:20;;;;;;;;;;;;;;;4.58;46.05;99223.34;4951945;28;19974;-82
2023/01/31 04:32:45;;;;;;;;;;;;;;;4.48;45.79;99228.56;4969075;28;20008;-83
2023/01/31 04:35:10;;;;;;;;;;;;;;;4.32;46.25;99220.69;4964550;28;20324;-81
2023/01/31 04:37:36;;;;;;;;;;;;;;;4.34;45.89;99239.84;4971817;28;20418;-82
2023/01/31 04:40:01;;;;;;;;;;;;;;;4.41;46.23;99234.63;4969657;28;19965;-81
2023/01/31 04:42:26;;;;;;;;;;;;;;;4.24;46.98;99236.34;4968440;28;19972;-81
2023/01/31 04:44:51;;;;;;;;;;;;;;;4.13;47.99;99251.94;4981934;28;20026;-82
2023/01/31 04:47:17;;;;;;;;;;;;;;;4.06;47.91;99251.06;4956420;28;20400;-81
2023/01/31 04:49:43;;;;;;;;;;;;;;;4.03;48.41;99251.06;4968309;28;19929;-79
2023/01/31 04:52:09;;;;;;;;;;;;;;;4.12;48.76;99253.69;4968862;28;19922;-80
2023/01/31 04:54:35;;;;;;;;;;;;;;;3.97;48.95;99252.75;4967501;28;19922;-81
2023/01/31 04:57:00;;;;;;;;;;;;;;;4.09;49.15;99261.53;4943186;28;19926;-80
2023/01/31 04:59:26;;;;;;;;;;;;;;;3.95;49.29;99252.75;4969245;28;20388;-80
2023/01/31 05:01:51;;;;;;;;;;;;;;;3.93;50.05;99259.69;4951710;28;19922;-80
2023/01/31 05:04:16;;;;;;;;;;;;;;;3.79;50.58;99256.16;4966378;28;19929;-80
2023/01/31 05:06:42;;;;;;;;;;;;;;;3.76;49.93;99249.16;4969262;28;19926;-82
2023/01/31 05:09:07;;;;;;;;;;;;;;;3.80;50.94;99245.72;4969485;28;20080;-83
2023/01/31 05:11:33;;;;;;;;;;;;;;;3.68;51.23;99249.13;4969051;28;19934;-81
2023/01/31 05:13:58;;;;;;;;;;;;;;;3.75;51.23;99245.69;4968987;28;19922;-81
2023/01/31 05:16:23;;;;;;;;;;;;;;;3.68;51.24;99251.75;4969803;28;19922;-80
2023/01/31 05:18:49;;;;;;;;;;;;;;;3.52;51.19;99257.72;4968270;28;19922;-79
2023/01/31 05:21:15;;;;;;;;;;;;;;;3.59;51.22;99270.81;4972008;28;20434;-80
2023/01/31 05:23:40;;;;;;;;;;;;;;;3.58;51.61;99276.91;4969077;28;19922;-79
2023/01/31 05:26:05;;;;;;;;;;;;;;;3.62;50.68;99285.63;4968292;28;20456;-80
2023/01/31 05:28:31;;;;;;;;;;;;;;;3.69;50.68;99283.91;4968484;28;19926;-79
2023/01/31 05:31:04;;;;;;;;;;;;;;;3.75;50.39;99286.56;4971731;28;19922;-80
2023/01/31 05:33:30;;;;;;;;;;;;;;;3.70;50.67;99307.41;4968678;28;19918;-81
2023/01/31 05:35:56;;;;;;;;;;;;;;;3.62;50.40;99301.25;4951095;28;20317;-79
2023/01/31 05:38:21;;;;;;;;;;;;;;;3.76;50.19;99301.34;4966193;28;19926;-79
2023/01/31 05:40:48;;;;;;;;;;;;;;;3.85;50.73;99309.25;4967394;28;20035;-81
2023/01/31 05:43:13;;;;;;;;;;;;;;;3.82;50.63;99310.97;4968526;28;20048;-80
2023/01/31 05:45:38;;;;;;;;;;;;;;;3.97;50.08;99307.56;4969009;28;20012;-79
2023/01/31 05:48:04;;;;;;;;;;;;;;;3.76;50.48;99312.66;4968274;28;19926;-79
2023/01/31 05:50:29;;;;;;;;;;;;;;;3.78;51.08;99317.88;4968245;28;20700;-78
2023/01/31 05:52:58;;;;;;;;;;;;;;;3.90;51.02;99319.72;4967715;28;19933;-78
2023/01/31 05:55:24;;;;;;;;;;;;;;;3.86;51.36;99329.25;4968106;28;19933;-79
2023/01/31 05:57:50;;;;;;;;;;;;;;;3.83;51.02;99324.03;4976003;28;19925;-78
2023/01/31 06:00:16;;;;;;;;;;;;;;;3.92;51.47;99325.78;4987146;28;19922;-81
2023/01/31 06:02:41;;;;;;;;;;;;;;;3.85;51.72;99322.28;4967777;28;19926;-80
2023/01/31 06:05:07;;;;;;;;;;;;;;;3.82;52.01;99316.19;4968030;28;20401;-81
2023/01/31 06:07:33;;;;;;;;;;;;;;;3.75;52.04;99315.25;4981697;28;19948;-81
2023/01/31 06:09:58;;;;;;;;;;;;;;;3.88;52.31;99319.69;4976720;28;19926;-79
2023/01/31 06:12:23;;;;;;;;;;;;;;;3.75;52.08;99325.69;4967820;28;19926;-79
2023/01/31 06:14:49;;;;;;;;;;;;;;;3.92;51.72;99331.00;4969352;28;20701;-79
2023/01/31 06:17:15;;;;;;;;;;;;;;;3.78;52.18;99330.06;4967727;28;20044;-81
2023/01/31 06:19:40;;;;;;;;;;;;;;;3.79;52.27;99327.47;4965105;28;20335;-79
2023/01/31 06:22:05;;;;;;;;;;;;;;;3.75;52.71;99337.03;4967369;28;19945;-79
2023/01/31 06:24:31;;;;;;;;;;;;;;;3.78;52.68;99345.72;4967698;28;20007;-79
2023/01/31 06:26:56;;;;;;;;;;;;;;;3.75;52.76;99355.28;4968575;28;20005;-79
2023/01/31 06:29:21;;;;;;;;;;;;;;;3.92;52.92;99354.50;4968246;28;20452;-79
2023/01/31 06:31:47;;;;;;;;;;;;;;;3.78;52.93;99351.81;4968260;28;19929;-80
2023/01/31 06:34:12;;;;;;;;;;;;;;;3.84;52.11;99346.63;4968640;28;19922;-82
2023/01/31 06:36:37;;;;;;;;;;;;;;;4.08;51.82;99351.13;4959916;28;19926;-79
2023/01/31 06:39:03;;;;;;;;;;;;;;;4.06;52.05;99362.41;4949104;28;19960;-79
2023/01/31 06:41:28;;;;;;;;;;;;;;;4.13;51.77;99357.25;4950962;28;19933;-79
2023/01/31 06:43:54;;;;;;;;;;;;;;;4.17;51.45;99357.25;4948970;28;19982;-80
2023/01/31 06:46:19;;;;;;;;;;;;;;;4.25;52.14;99363.41;4948323;28;20376;-78
2023/01/31 06:48:46;;;;;;;;;;;;;;;4.35;51.25;99353.88;4954655;28;20438;-79
2023/01/31 06:51:11;;;;;;;;;;;;;;;4.32;51.71;99356.47;4956788;28;20491;-79
2023/01/31 06:53:36;;;;;;;;;;;;;;;4.36;51.31;99356.50;4973567;28;20017;-79
2023/01/31 06:56:01;;;;;;;;;;;;;;;4.40;51.75;99360.88;4961938;28;19942;-79
2023/01/31 06:58:27;;;;;;;;;;;;;;;4.52;51.62;99365.25;4948711;28;19926;-80
2023/01/31 07:00:52;;;;;;;;;;;;;;;4.56;51.58;99363.56;4948220;28;19957;-79
2023/01/31 07:03:18;;;;;;;;;;;;;;;4.55;51.54;99367.88;4949417;28;19923;-79
2023/01/31 07:05:44;;;;;;;;;;;;;;;4.75;52.01;99364.50;4950127;28;20278;-78
2023/01/31 07:08:09;;;;;;;;;;;;;;;4.78;51.10;99369.72;4954300;28;20373;-78
2023/01/31 07:10:34;;;;;;;;;;;;;;;4.63;52.41;99375.75;4963141;28;20503;-79
2023/01/31 07:13:00;;;;;;;;;;;;;;;4.79;52.35;99382.81;4949425;28;19918;-80
2023/01/31 07:15:26;;;;;;;;;;;;;;;4.96;51.88;99374.16;4948670;28;19945;-79
2023/01/31 07:17:56;;;;;;;;;;;;;;;4.82;51.84;99374.97;4957149;28;20448;-78
2023/01/31 07:20:21;;;;;;;;;;;;;;;4.74;52.50;99388.88;4958663;28;20012;-79
2023/01/31 07:22:52;;;;;;;;;;;;;;;4.74;52.63;99384.53;4953325;28;20420;-80
2023/01/31 07:25:19;;;;;;;;;;;;;;;4.80;52.24;99386.28;4968368;28;20487;-79
2023/01/31 07:27:44;;;;;;;;;;;;;;;4.89;52.37;99390.66;4966638;28;19930;-79
2023/01/31 07:30:10;;;;;;;;;;;;;;;4.89;52.65;99394.16;4969659;28;19980;-81
2023/01/31 07:32:35;;;;;;;;;;;;;;;4.81;52.15;99401.09;4971097;28;20387;-80
2023/01/31 07:35:00;;;;;;;;;;;;;;;4.84;52.11;99401.97;4970746;28;19929;-80
2023/01/31 07:37:26;;;;;;;;;;;;;;;4.96;51.92;99405.50;4971243;28;20368;-79
2023/01/31 07:39:51;;;;;;;;;;;;;;;4.97;51.58;99407.25;4971674;28;20005;-79
2023/01/31 07:42:16;;;;;;;;;;;;;;;5.03;51.67;99402.03;4971672;28;20125;-79
2023/01/31 07:44:41;;;;;;;;;;;;;;;5.00;51.95;99399.41;4971353;28;19972;-79
2023/01/31 07:47:07;;;;;;;;;;;;;;;4.99;51.42;99416.84;4971560;28;19918;-79
2023/01/31 07:49:32;;;;;;;;;;;;;;;5.29;51.10;99401.22;4970812;28;19961;-80
2023/01/31 07:51:57;;;;;;;;;;;;;;;5.25;51.32;99405.59;4971105;28;19922;-80
2023/01/31 07:54:23;;;;;;;;;;;;;;;5.23;51.29;99396.84;4971158;28;19922;-80
2023/01/31 07:56:48;;;;;;;;;;;;;;;5.15;50.85;99414.28;4970532;28;20020;-80
2023/01/31 07:59:13;;;;;;;;;;;;;;;5.23;51.05;99416.91;4970938;28;19929;-80
2023/01/31 08:04:22;;;;;;;;;;;;;;;5.33;50.50;99416.94;4971134;28;19931;-82
2023/01/31 08:06:49;;;;;;;;;;;;;;;5.45;50.53;99418.66;4953140;28;19927;-81
2023/01/31 08:09:14;;;;;;;;;;;;;;;5.53;50.28;99427.44;4953614;28;20277;-80
2023/01/31 08:11:40;;;;;;;;;;;;;;;5.46;49.95;99406.47;4970509;28;19933;-80
2023/01/31 08:14:07;;;;;;;;;;;;;;;5.38;50.08;99417.78;4970786;28;19929;-81
2023/01/31 08:16:32;;;;;;;;;;;;;;;5.48;49.90;99426.53;4952271;28;20309;-79
2023/01/31 08:18:58;;;;;;;;;;;;;;;5.59;50.17;99418.69;4970539;28;19918;-79
2023/01/31 08:21:23;;;;;;;;;;;;;;;5.60;49.38;99416.97;4969900;28;19933;-82
2023/01/31 08:23:48;;;;;;;;;;;;;;;5.77;49.93;99424.81;4970223;28;20047;-80
2023/01/31 08:26:15;;;;;;;;;;;;;;;5.76;49.92;99418.69;4969568;28;20380;-80
2023/01/31 08:28:41;;;;;;;;;;;;;;;5.83;49.48;99417.81;4969821;28;19922;-81
2023/01/31 08:31:06;;;;;;;;;;;;;;;5.86;48.63;99428.31;4969910;28;20435;-82
2023/01/31 08:33:32;;;;;;;;;;;;;;;5.83;48.38;99425.69;4969180;28;20293;-80
2023/01/31 08:36:06;;;;;;;;;;;;;;;6.08;48.91;99420.47;4970032;28;19933;-80
2023/01/31 08:38:32;;;;;;;;;;;;;;;6.06;48.72;99430.94;4969393;28;19921;-81
2023/01/31 08:40:57;;;;;;;;;;;;;;;5.87;47.62;99427.44;4969744;28;20300;-79
2023/01/31 08:43:22;;;;;;;;;;;;;;;5.83;48.24;99436.16;4969378;28;20146;-82
2023/01/31 08:45:48;;;;;;;;;;;;;;;5.84;48.21;99424.81;4969627;28;19944;-78
2023/01/31 08:48:13;;;;;;;;;;;;;;;5.87;48.28;99439.63;4969075;28;19926;-82
2023/01/31 08:50:39;;;;;;;;;;;;;;;6.00;48.65;99441.41;4969414;28;19985;-81
2023/01/31 08:53:04;;;;;;;;;;;;;;;5.92;48.15;99446.63;4970156;28;19922;-81
2023/01/31 08:55:30;;;;;;;;;;;;;;;5.98;47.99;99444.91;4969893;28;19922;-83
2023/01/31 08:57:56;;;;;;;;;;;;;;;6.03;48.10;99443.19;4970034;28;19928;-81
2023/01/31 09:00:21;;;;;;;;;;;;;;;5.96;48.32;99449.25;4970018;28;20447;-81
2023/01/31 09:02:50;;;;;;;;;;;;;;;5.98;48.50;99452.75;4969737;28;19981;-81
2023/01/31 09:05:16;;;;;;;;;;;;;;;6.12;48.03;99451.03;4969217;28;20005;-82
2023/01/31 09:07:41;;;;;;;;;;;;;;;6.18;48.17;99443.16;4969466;28;20037;-82
2023/01/31 09:10:07;;;;;;;;;;;;;;;6.30;48.83;99447.50;4969125;28;19918;-81
2023/01/31 09:12:32;;;;;;;;;;;;;;;6.25;48.22;99442.25;4969825;28;19918;-81
2023/01/31 09:14:58;;;;;;;;;;;;;;;6.18;48.42;99455.38;4969525;28;20512;-81
2023/01/31 09:17:23;;;;;;;;;;;;;;;6.13;48.11;99460.59;4969501;28;19926;-81
2023/01/31 09:19:49;;;;;;;;;;;;;;;5.90;48.22;99455.34;4969384;28;19973;-81
2023/01/31 09:22:14;;;;;;;;;;;;;;;5.94;48.04;99451.00;4969443;28;19929;-81
2023/01/31 09:24:40;;;;;;;;;;;;;;;5.93;48.56;99447.50;4969063;28;19922;-81
2023/01/31 09:27:05;;;;;;;;;;;;;;;6.03;48.40;99444.03;4968941;28;19977;-83
2023/01/31 09:29:30;;;;;;;;;;;;;;;6.24;47.95;99443.16;4969332;28;20664;-81
2023/01/31 09:31:56;;;;;;;;;;;;;;;6.20;47.71;99433.53;4969147;28;19922;-82
2023/01/31 09:34:21;;;;;;;;;;;;;;;6.48;48.34;99436.13;4969259;28;19996;-82
2023/01/31 09:36:47;;;;;;;;;;;;;;;6.67;47.35;99446.53;4968919;28;19961;-81
2023/01/31 09:39:12;;;;;;;;;;;;;;;6.57;46.08;99427.38;4968981;28;20360;-81
2023/01/31 09:41:43;;;;;;;;;;;;;;;6.76;46.04;99420.28;4968476;28;20020;-81
2023/01/31 09:44:16;;;;;;;;;;;;;;;7.06;46.14;99418.41;4969361;28;19918;-81
2023/01/31 09:46:46;;;;;;;;;;;;;;;7.20;45.71;99419.22;4968934;28;19942;-81
2023/01/31 09:49:21;;;;;;;;;;;;;;;7.20;45.43;99416.59;4968995;28;19918;-81
2023/01/31 09:51:50;;;;;;;;;;;;;;;7.37;45.04;99418.22;4968556;28;20364;-81
2023/01/31 09:54:18;;;;;;;;;;;;;;;7.19;45.14;99416.63;4968961;28;19922;-81
2023/01/31 09:57:04;;;;;;;;;;;;;;;7.28;45.49;99419.19;4968460;28;20017;-83
2023/01/31 09:59:35;;;;;;;;;;;;;;;7.24;45.38;99402.56;4968272;28;20608;-82
2023/01/31 10:02:10;;;;;;;;;;;;;;;7.13;45.70;99407.00;4968182;28;19929;-81
2023/01/31 10:04:41;;;;;;;;;;;;;;;7.35;46.80;99410.38;4967806;28;19926;-84
2023/01/31 10:07:19;;;;;;;;;;;;;;;7.28;45.49;99403.44;4968475;28;19981;-81
2023/01/31 10:10:04;;;;;;;;;;;;;;;7.46;45.84;99397.16;4976564;28;20364;-82
2023/01/31 10:12:37;;;;;;;;;;;;;;;7.59;45.74;99377.84;4956720;28;20012;-84
2023/01/31 10:15:09;;;;;;;;;;;;;;;7.65;45.97;99390.91;4965486;28;19986;-79
2023/01/31 10:17:48;;;;;;;;;;;;;;;7.48;44.32;99379.69;4952202;28;19922;-84
2023/01/31 10:20:40;;;;;;;;;;;;;;;7.43;44.83;99395.47;4935931;28;19942;-83
2023/01/31 10:23:15;;;;;;;;;;;;;;;7.53;44.24;99391.00;4961149;28;19922;-83
2023/01/31 10:25:47;;;;;;;;;;;;;;;7.51;44.32;99400.66;4962592;28;19922;-81
2023/01/31 10:28:18;;;;;;;;;;;;;;;7.52;44.40;99384.00;4965224;28;19954;-83
2023/01/31 10:30:48;;;;;;;;;;;;;;;8.08;44.98;99384.41;4962906;28;19966;-85
2023/01/31 10:33:22;;;;;;;;;;;;;;;7.75;43.29;99361.97;4956944;28;19926;-79
2023/01/31 10:35:50;;;;;;;;;;;;;;;7.77;44.11;99363.69;4972466;28;20391;-83
2023/01/31 10:38:39;;;;;;;;;;;;;;;7.84;43.36;99362.72;4962372;28;19926;-82
2023/01/31 10:41:13;;;;;;;;;;;;;;;7.84;43.15;99360.09;4954002;28;19922;-81
2023/01/31 10:43:43;;;;;;;;;;;;;;;7.76;43.38;99351.44;4966554;28;19922;-82
2023/01/31 10:46:12;;;;;;;;;;;;;;;8.03;42.85;99357.31;4966347;28;19929;-81
2023/01/31 10:48:38;;;;;;;;;;;;;;;7.95;41.80;99349.50;4958734;28;20324;-82
2023/01/31 10:51:15;;;;;;;;;;;;;;;8.14;42.33;99331.81;4966039;28;19926;-84
2023/01/31 10:53:47;;;;;;;;;;;;;;;8.49;42.94;99342.84;4971597;28;19922;-80
2023/01/31 10:56:27;;;;;;;;;;;;;;;8.19;43.27;99344.91;4971321;28;19922;-81
2023/01/31 10:58:53;;;;;;;;;;;;;;;8.43;43.74;99351.63;4971881;28;19923;-81
2023/01/31 11:01:18;;;;;;;;;;;;;;;8.56;42.65;99337.47;4971709;28;19918;-80
2023/01/31 11:03:51;;;;;;;;;;;;;;;8.51;42.97;99336.69;4971562;28;20376;-82
2023/01/31 11:06:17;;;;;;;;;;;;;;;8.54;43.10;99336.63;4971653;28;19917;-82
2023/01/31 11:08:46;;;;;;;;;;;;;;;8.75;43.35;99339.88;4971346;28;20369;-80
2023/01/31 11:11:13;;;;;;;;;;;;;;;8.69;42.88;99326.81;4970937;28;19953;-80
2023/01/31 11:13:39;;;;;;;;;;;;;;;8.80;43.19;99331.91;4971327;28;19956;-81
2023/01/31 11:16:09;;;;;;;;;;;;;;;8.86;42.82;99337.09;4971172;28;19961;-81
2023/01/31 11:18:37;;;;;;;;;;;;;;;8.94;42.72;99329.97;4970116;28;19918;-80
2023/01/31 11:21:03;;;;;;;;;;;;;;;9.11;42.70;99325.34;4970100;28;19937;-80
2023/01/31 11:23:30;;;;;;;;;;;;;;;9.09;42.26;99321.84;4970326;28;20413;-80
2023/01/31 11:25:56;;;;;;;;;;;;;;;9.25;43.30;99316.34;4970717;28;19918;-80
2023/01/31 11:28:23;;;;;;;;;;;;;;;8.96;41.81;99318.53;4970760;28;19922;-80
2023/01/31 11:30:50;;;;;;;;;;;;;;;8.71;42.69;99318.00;5001159;28;20776;-85
2023/01/31 11:33:34;;;;;;;;;;;;;;;8.37;41.96;99322.78;4970971;28;19948;-82
2023/01/31 11:36:05;;;;;;;;;;;;;;;8.29;44.09;99322.88;4969819;28;20017;-81
2023/01/31 11:38:31;;;;;;;;;;;;;;;8.03;43.10;99326.69;4971007;28;20013;-81
2023/01/31 11:40:56;;;;;;;;;;;;;;;8.12;44.19;99309.91;4985374;28;20017;-80
2023/01/31 11:43:23;;;;;;;;;;;;;;;8.07;43.68;99335.38;4970810;28;19922;-79
2023/01/31 11:45:59;;;;;;;;;;;;;;;7.88;43.96;99335.56;4970177;28;19922;-81
2023/01/31 11:48:44;;;;;;;;;;;;;;;7.95;44.81;99328.50;4970574;28;20744;-79
2023/01/31 11:51:25;;;;;;;;;;;;;;;7.81;44.30;99328.63;4970211;28;19945;-79
2023/01/31 11:53:51;;;;;;;;;;;;;;;7.76;45.51;99333.06;4970070;28;19918;-79
2023/01/31 11:56:25;;;;;;;;;;;;;;;7.81;45.72;99333.00;4970693;28;20105;-80
2023/01/31 11:58:55;;;;;;;;;;;;;;;7.92;45.26;99339.03;4969856;28;19922;-82
2023/01/31 12:01:21;;;;;;;;;;;;;;;7.66;45.21;99337.53;4970516;28;20008;-79
2023/01/31 12:03:52;;;;;;;;;;;;;;;7.58;45.62;99344.59;4969682;28;19962;-79
2023/01/31 12:06:28;;;;;;;;;;;;;;;7.46;46.53;99342.06;4970764;28;19925;-80
2023/01/31 12:08:54;;;;;;;;;;;;;;;7.20;46.71;99342.25;4970028;28;19922;-81
2023/01/31 12:11:20;;;;;;;;;;;;;;;7.14;47.67;99343.19;4970259;28;19925;-81
2023/01/31 12:13:46;;;;;;;;;;;;;;;7.30;48.01;99346.56;4970395;28;19922;-81
2023/01/31 12:16:12;;;;;;;;;;;;;;;7.54;47.00;99348.13;4970169;28;19924;-81
2023/01/31 12:18:37;;;;;;;;;;;;;;;7.41;47.36;99362.22;4970265;28;20005;-81
2023/01/31 12:21:08;;;;;;;;;;;;;;;7.01;48.18;99346.75;4969741;28;19922;-80
2023/01/31 12:23:40;;;;;;;;;;;;;;;7.24;48.96;99357.97;4969903;28;19926;-80
2023/01/31 12:26:24;;;;;;;;;;;;;;;7.25;48.10;99361.47;4969322;28;20041;-81
2023/01/31 12:29:08;;;;;;;;;;;;;;;7.21;48.72;99365.00;4968644;28;19918;-84
2023/01/31 12:31:36;;;;;;;;;;;;;;;7.14;48.25;99370.28;4969860;28;19918;-80
2023/01/31 12:34:01;;;;;;;;;;;;;;;7.12;48.42;99372.06;4969313;28;19925;-81
2023/01/31 12:36:30;;;;;;;;;;;;;;;7.37;49.11;99371.00;4969746;28;19922;-81
2023/01/31 12:38:55;;;;;;;;;;;;;;;7.23;48.11;99369.34;4969773;28;19918;-80
2023/01/31 12:41:28;;;;;;;;;;;;;;;7.05;49.41;99379.97;4969697;28;19929;-80
2023/01/31 12:44:14;;;;;;;;;;;;;;;7.07;50.10;99372.94;4969440;28;19922;-80
2023/01/31 12:46:52;;;;;;;;;;;;;;;6.96;50.12;99376.50;4969597;28;20413;-80
2023/01/31 12:49:42;;;;;;;;;;;;;;;6.97;50.77;99365.13;4969311;28;19922;-79
2023/01/31 12:52:17;;;;;;;;;;;;;;;7.22;49.51;99361.50;4969720;28;19922;-79
2023/01/31 12:54:42;;;;;;;;;;;;;;;7.35;49.30;99376.25;4969864;28;19922;-80
2023/01/31 12:57:23;;;;;;;;;;;;;;;7.66;49.57;99368.16;4969263;28;20523;-81
2023/01/31 13:00:08;;;;;;;;;;;;;;;7.58;49.38;99365.59;4969359;28;20472;-81
2023/01/31 13:02:34;;;;;;;;;;;;;;;7.27;49.52;99367.56;4968862;28;19982;-81
2023/01/31 13:04:59;;;;;;;;;;;;;;;7.22;50.50;99372.84;4969144;28;19968;-80
2023/01/31 13:07:29;;;;;;;;;;;;;;;6.90;50.45;99381.75;4969594;28;19922;-80
2023/01/31 13:09:56;;;;;;;;;;;;;;;6.74;53.41;99374.88;4969004;28;19945;-80
2023/01/31 13:12:26;;;;;;;;;;;;;;;6.40;54.45;99369.75;4968834;28;20040;-83